createdAt,value
2022-09-15T00:00:52.632Z,98.9
2022-09-15T00:02:08.930Z,99.1
2022-09-15T00:03:25.211Z,99.1
2022-09-15T00:04:41.000Z,99.1
2022-09-15T00:05:56.819Z,99
2022-09-15T00:07:13.114Z,99
2022-09-15T00:08:29.419Z,99
2022-09-15T00:09:45.713Z,98.6
2022-09-15T00:11:01.989Z,98.7
2022-09-15T00:12:18.288Z,98.9
2022-09-15T00:13:34.583Z,98.8
2022-09-15T00:14:50.909Z,98.8
2022-09-15T00:16:07.178Z,98.5
2022-09-15T00:17:23.460Z,98.7
2022-09-15T00:18:39.791Z,98.9
2022-09-15T00:19:56.051Z,98.7
2022-09-15T00:21:12.345Z,98.8
2022-09-15T00:22:27.654Z,98.7
2022-09-15T00:23:43.960Z,98.6
2022-09-15T00:25:00.254Z,98.5
2022-09-15T00:26:16.536Z,98.4
2022-09-15T00:27:32.841Z,98.6
2022-09-15T00:28:49.123Z,98.4
2022-09-15T00:30:05.425Z,98.6
2022-09-15T00:31:21.719Z,98.3
2022-09-15T00:32:38.005Z,98.3
2022-09-15T00:33:54.300Z,97.9
2022-09-15T00:35:10.609Z,98.1
2022-09-15T00:36:26.904Z,98.5
2022-09-15T00:37:43.183Z,98.3
2022-09-15T00:40:14.812Z,98.4
2022-09-15T00:41:31.081Z,98.3
2022-09-15T00:42:47.391Z,98.3
2022-09-15T00:44:03.675Z,98.2
2022-09-15T00:45:19.967Z,98.3
2022-09-15T00:46:36.274Z,98.5
2022-09-15T00:47:52.563Z,98.5
2022-09-15T00:49:08.855Z,98.4
2022-09-15T00:50:25.141Z,98.7
2022-09-15T00:51:41.433Z,98.7
2022-09-15T00:52:57.735Z,98.5
2022-09-15T00:54:14.020Z,98.5
2022-09-15T00:55:29.334Z,98.6
2022-09-15T00:56:45.628Z,98.7
2022-09-15T00:58:01.927Z,98.5
2022-09-15T00:59:18.231Z,98.6
2022-09-15T01:00:34.521Z,98.5
2022-09-15T01:01:50.806Z,98.9
2022-09-15T01:03:07.118Z,99
2022-09-15T01:04:23.416Z,98.2
2022-09-15T01:05:39.707Z,98.6
2022-09-15T01:06:55.990Z,98.5
2022-09-15T01:08:12.281Z,98.5
2022-09-15T01:09:28.581Z,98.5
2022-09-15T01:10:44.865Z,98.9
2022-09-15T01:12:00.180Z,99
2022-09-15T01:13:16.466Z,99
2022-09-15T01:14:32.760Z,98.8
2022-09-15T01:15:49.069Z,98.8
2022-09-15T01:17:05.348Z,98.7
2022-09-15T01:18:21.651Z,98.4
2022-09-15T01:19:37.949Z,98.6
2022-09-15T01:20:54.243Z,98.7
2022-09-15T01:22:10.521Z,98.8
2022-09-15T01:23:26.834Z,99.3
2022-09-15T01:24:43.128Z,99.1
2022-09-15T01:25:59.411Z,98.7
2022-09-15T01:27:15.723Z,98.7
2022-09-15T01:28:31.009Z,98.9
2022-09-15T01:29:47.333Z,98.7
2022-09-15T01:31:03.605Z,98.5
2022-09-15T01:32:19.931Z,98.8
2022-09-15T01:33:36.212Z,98.7
2022-09-15T01:34:52.492Z,98.7
2022-09-15T01:36:08.786Z,98.8
2022-09-15T01:37:25.068Z,98.7
2022-09-15T01:38:41.360Z,99
2022-09-15T01:39:57.662Z,99.1
2022-09-15T01:41:13.952Z,99
2022-09-15T01:42:30.261Z,99
2022-09-15T01:43:46.564Z,99
2022-09-15T01:45:01.865Z,98.7
2022-09-15T01:46:18.141Z,98.8
2022-09-15T01:47:34.448Z,98.8
2022-09-15T01:48:50.729Z,99.3
2022-09-15T01:50:07.042Z,99.1
2022-09-15T01:51:23.317Z,99.5
2022-09-15T01:52:39.621Z,99.9
2022-09-15T01:53:55.932Z,100
2022-09-15T01:55:12.225Z,100
2022-09-15T01:56:28.520Z,100
2022-09-15T01:57:44.808Z,100
2022-09-15T01:59:01.117Z,100
2022-09-15T02:00:17.395Z,100
2022-09-15T02:01:32.714Z,100
2022-09-15T02:02:48.981Z,100
2022-09-15T02:04:05.295Z,100
2022-09-15T02:05:21.571Z,100
2022-09-15T02:06:37.868Z,100
2022-09-15T02:07:54.161Z,100
2022-09-15T02:09:09.502Z,100
2022-09-15T02:10:25.807Z,100
2022-09-15T02:11:42.092Z,100
2022-09-15T02:12:58.356Z,100
2022-09-15T02:14:14.658Z,100
2022-09-15T02:15:30.945Z,100
2022-09-15T02:16:47.254Z,100
2022-09-15T02:18:03.532Z,100
2022-09-15T02:19:19.830Z,100
2022-09-15T02:20:36.151Z,100
2022-09-15T02:21:52.417Z,100
2022-09-15T02:23:08.740Z,100
2022-09-15T02:24:25.020Z,100
2022-09-15T02:25:40.316Z,100
2022-09-15T02:26:56.619Z,100
2022-09-15T02:28:12.929Z,100
2022-09-15T02:29:29.198Z,100
2022-09-15T02:30:45.488Z,100
2022-09-15T02:32:01.800Z,100
2022-09-15T02:33:18.089Z,100
2022-09-15T02:34:34.401Z,100
2022-09-15T02:35:50.693Z,100
2022-09-15T02:37:06.969Z,100
2022-09-15T02:38:23.285Z,100
2022-09-15T02:39:39.562Z,100
2022-09-15T02:40:55.876Z,100
2022-09-15T02:42:11.178Z,100
2022-09-15T02:43:27.444Z,100
2022-09-15T02:44:43.742Z,100
2022-09-15T02:46:00.036Z,100
2022-09-15T02:47:16.327Z,100
2022-09-15T02:48:32.638Z,100
2022-09-15T02:49:48.933Z,100
2022-09-15T02:51:05.209Z,100
2022-09-15T02:52:21.520Z,100
2022-09-15T02:53:37.811Z,100
2022-09-15T02:54:54.105Z,100
2022-09-15T02:56:10.418Z,100
2022-09-15T02:57:26.709Z,100
2022-09-15T02:58:42.006Z,100
2022-09-15T02:59:58.297Z,100
2022-09-15T03:01:14.592Z,100
2022-09-15T03:02:30.869Z,100
2022-09-15T03:03:47.175Z,100
2022-09-15T03:05:03.459Z,100
2022-09-15T03:06:19.783Z,100
2022-09-15T03:07:36.047Z,100
2022-09-15T03:08:52.350Z,100
2022-09-15T03:10:08.644Z,100
2022-09-15T03:11:24.945Z,100
2022-09-15T03:12:41.222Z,100
2022-09-15T03:13:57.556Z,100
2022-09-15T03:15:12.835Z,100
2022-09-15T03:16:29.122Z,100
2022-09-15T03:17:45.419Z,100
2022-09-15T03:19:01.723Z,100
2022-09-15T03:20:18.004Z,100
2022-09-15T03:21:34.305Z,100
2022-09-15T03:22:50.598Z,100
2022-09-15T03:24:06.910Z,100
2022-09-15T03:25:23.204Z,100
2022-09-15T03:26:39.502Z,100
2022-09-15T03:27:55.771Z,100
2022-09-15T03:29:12.063Z,100
2022-09-15T03:30:28.366Z,100
2022-09-15T03:31:43.668Z,100
2022-09-15T03:32:59.969Z,100
2022-09-15T03:34:16.266Z,100
2022-09-15T03:35:32.547Z,100
2022-09-15T03:36:48.845Z,100
2022-09-15T03:38:05.147Z,100
2022-09-15T03:39:21.432Z,100
2022-09-15T03:40:37.730Z,100
2022-09-15T03:41:54.023Z,100
2022-09-15T03:43:10.316Z,100
2022-09-15T03:44:26.625Z,100
2022-09-15T03:45:42.916Z,100
2022-09-15T03:46:59.202Z,100
2022-09-15T03:48:14.518Z,100
2022-09-15T03:49:30.816Z,100
2022-09-15T03:50:47.122Z,100
2022-09-15T03:52:03.396Z,100
2022-09-15T03:53:19.706Z,100
2022-09-15T03:54:35.995Z,100
2022-09-15T03:55:52.273Z,100
2022-09-15T03:57:08.573Z,100
2022-09-15T03:58:24.862Z,100
2022-09-15T03:59:41.167Z,100
2022-09-15T04:00:57.476Z,100
2022-09-15T04:02:13.767Z,100
2022-09-15T04:03:30.048Z,100
2022-09-15T04:04:45.351Z,100
2022-09-15T04:06:01.652Z,100
2022-09-15T04:07:17.968Z,100
2022-09-15T04:08:34.244Z,100
2022-09-15T04:09:50.524Z,100
2022-09-15T04:11:06.825Z,100
2022-09-15T04:12:23.123Z,100
2022-09-15T04:13:39.412Z,100
2022-09-15T04:14:55.700Z,100
2022-09-15T04:16:11.995Z,100
2022-09-15T04:17:28.321Z,100
2022-09-15T04:18:44.527Z,100
2022-09-15T04:20:00.793Z,100
2022-09-15T04:21:16.039Z,100
2022-09-15T04:22:32.328Z,100
2022-09-15T04:23:48.595Z,100
2022-09-15T04:25:04.822Z,99.9
2022-09-15T04:26:21.064Z,99.8
2022-09-15T04:27:37.308Z,99.8
2022-09-15T04:28:53.544Z,99.7
2022-09-15T04:30:09.783Z,99.6
2022-09-15T04:31:26.029Z,99.5
2022-09-15T04:32:42.267Z,99.3
2022-09-15T04:33:58.501Z,99.2
2022-09-15T04:35:14.742Z,99.2
2022-09-15T04:36:30.979Z,99.2
2022-09-15T04:37:46.236Z,99.1
2022-09-15T04:39:02.487Z,99
2022-09-15T04:40:18.728Z,99.1
2022-09-15T04:41:34.966Z,99.1
2022-09-15T04:42:51.201Z,99.4
2022-09-15T04:44:07.440Z,99.4
2022-09-15T04:45:23.690Z,99.2
2022-09-15T04:46:39.932Z,99.3
2022-09-15T04:47:56.158Z,99.4
2022-09-15T04:49:12.410Z,99.1
2022-09-15T04:50:28.644Z,99.2
2022-09-15T04:51:44.886Z,99.5
2022-09-15T04:53:01.118Z,99.3
2022-09-15T04:54:16.381Z,99.4
2022-09-15T04:56:48.853Z,99.5
2022-09-15T04:58:05.120Z,99.3
2022-09-15T04:59:21.334Z,99.5
2022-09-15T05:00:37.583Z,99.5
2022-09-15T05:01:53.814Z,99.4
2022-09-15T05:03:10.065Z,99.6
2022-09-15T05:04:26.307Z,99.6
2022-09-15T05:05:42.544Z,99.7
2022-09-15T05:06:58.784Z,99.8
2022-09-15T05:08:15.030Z,99.8
2022-09-15T05:09:31.271Z,99.8
2022-09-15T05:10:46.518Z,99.8
2022-09-15T05:12:02.754Z,99.7
2022-09-15T05:13:19.001Z,99.7
2022-09-15T05:14:35.244Z,99.5
2022-09-15T05:15:51.478Z,99.4
2022-09-15T05:17:07.723Z,99.5
2022-09-15T05:18:23.964Z,99.7
2022-09-15T05:19:40.201Z,99.6
2022-09-15T05:20:56.437Z,99.6
2022-09-15T05:22:12.681Z,99.8
2022-09-15T05:23:28.926Z,99.9
2022-09-15T05:24:45.152Z,99.9
2022-09-15T05:26:01.402Z,100
2022-09-15T05:27:16.667Z,99.8
2022-09-15T05:28:32.900Z,99.9
2022-09-15T05:29:49.128Z,100
2022-09-15T05:31:05.368Z,100
2022-09-15T05:32:21.619Z,100
2022-09-15T05:33:37.850Z,100
2022-09-15T05:34:54.094Z,100
2022-09-15T05:36:10.334Z,100
2022-09-15T05:37:26.585Z,100
2022-09-15T05:38:42.818Z,100
2022-09-15T05:39:59.054Z,99.9
2022-09-15T05:41:15.310Z,99.8
2022-09-15T05:42:31.529Z,99.3
2022-09-15T05:43:46.804Z,99.5
2022-09-15T05:45:03.026Z,99.6
2022-09-15T05:46:19.267Z,99.6
2022-09-15T05:47:35.506Z,99.3
2022-09-15T05:48:51.763Z,98.7
2022-09-15T05:50:08.005Z,98.3
2022-09-15T05:52:40.472Z,98.1
2022-09-15T05:53:56.717Z,97.5
2022-09-15T05:55:12.948Z,96.9
2022-09-15T05:56:29.204Z,97.3
2022-09-15T05:57:45.438Z,97.5
2022-09-15T05:59:01.667Z,97.5
2022-09-15T06:00:16.923Z,97.9
2022-09-15T06:01:33.177Z,97.3
2022-09-15T06:02:49.403Z,97.1
2022-09-15T06:04:05.647Z,97.3
2022-09-15T06:05:21.898Z,96.9
2022-09-15T06:06:38.135Z,97.3
2022-09-15T06:07:54.377Z,96.5
2022-09-15T06:09:10.614Z,96
2022-09-15T06:10:26.860Z,96.1
2022-09-15T06:11:43.088Z,95.9
2022-09-15T06:12:59.332Z,96.9
2022-09-15T06:14:15.581Z,96.9
2022-09-15T06:15:31.814Z,96.1
2022-09-15T06:16:47.066Z,96.1
2022-09-15T06:18:03.306Z,96
2022-09-15T06:19:19.548Z,96.4
2022-09-15T06:20:35.786Z,96.3
2022-09-15T06:21:52.019Z,95.6
2022-09-15T06:23:08.269Z,95.9
2022-09-15T06:24:23.526Z,95.8
2022-09-15T06:25:39.780Z,95.5
2022-09-15T06:26:56.010Z,96.2
2022-09-15T06:28:12.246Z,96
2022-09-15T06:29:28.487Z,96.5
2022-09-15T06:30:44.741Z,96.1
2022-09-15T06:32:00.972Z,96.4
2022-09-15T06:33:17.220Z,95.9
2022-09-15T06:34:33.454Z,95.9
2022-09-15T06:35:49.689Z,96.6
2022-09-15T06:37:05.930Z,96.9
2022-09-15T06:38:22.170Z,96.4
2022-09-15T06:39:38.425Z,96.7
2022-09-15T06:40:53.672Z,96.6
2022-09-15T06:42:09.899Z,96.2
2022-09-15T06:43:26.143Z,96.5
2022-09-15T06:45:58.620Z,96.6
2022-09-15T06:47:14.861Z,96
2022-09-15T06:48:31.119Z,96.1
2022-09-15T06:51:03.578Z,96.3
2022-09-15T06:52:19.824Z,96.2
2022-09-15T06:53:36.073Z,96.3
2022-09-15T06:54:52.324Z,96.4
2022-09-15T06:56:08.541Z,96.1
2022-09-15T06:57:23.808Z,96.2
2022-09-15T06:58:40.052Z,96.1
2022-09-15T06:59:56.286Z,95.7
2022-09-15T07:01:12.519Z,95.9
2022-09-15T07:02:28.758Z,95.5
2022-09-15T07:03:45.009Z,94.4
2022-09-15T07:05:01.236Z,92.2
2022-09-15T07:06:17.488Z,93.2
2022-09-15T07:07:33.726Z,93.8
2022-09-15T07:08:49.960Z,94.6
2022-09-15T07:10:06.213Z,94.7
2022-09-15T07:11:22.440Z,94.5
2022-09-15T07:13:54.917Z,92.7
2022-09-15T07:15:10.183Z,91.6
2022-09-15T07:16:26.422Z,92.4
2022-09-15T07:17:42.667Z,92.1
2022-09-15T07:18:58.907Z,92.2
2022-09-15T07:20:15.132Z,92.4
2022-09-15T07:21:31.386Z,91.5
2022-09-15T07:22:47.614Z,92.2
2022-09-15T07:24:03.870Z,92
2022-09-15T07:25:20.096Z,92.5
2022-09-15T07:26:36.339Z,91.3
2022-09-15T07:27:52.582Z,90.9
2022-09-15T07:29:08.826Z,91.2
2022-09-15T07:30:25.054Z,90.8
2022-09-15T07:31:40.326Z,91.4
2022-09-15T07:32:56.560Z,91.7
2022-09-15T07:34:12.803Z,90.3
2022-09-15T07:35:29.046Z,91.8
2022-09-15T07:36:45.290Z,91.5
2022-09-15T07:38:01.525Z,91.3
2022-09-15T07:39:17.752Z,89.2
2022-09-15T07:40:33.990Z,90.6
2022-09-15T07:41:50.244Z,90.4
2022-09-15T07:43:06.501Z,90
2022-09-15T07:44:22.721Z,90.1
2022-09-15T07:45:38.968Z,90.1
2022-09-15T07:46:55.199Z,90.6
2022-09-15T07:48:10.454Z,89.8
2022-09-15T07:49:26.691Z,89.7
2022-09-15T07:50:42.931Z,88.2
2022-09-15T07:51:59.169Z,88.5
2022-09-15T07:53:15.422Z,88.6
2022-09-15T07:54:31.648Z,86.4
2022-09-15T07:55:47.900Z,87
2022-09-15T07:57:04.145Z,88.6
2022-09-15T07:58:20.383Z,86.5
2022-09-15T07:59:36.626Z,87.2
2022-09-15T08:00:52.857Z,86.7
2022-09-15T08:02:09.089Z,87
2022-09-15T08:03:25.345Z,85.6
2022-09-15T08:04:40.595Z,82.9
2022-09-15T08:05:56.823Z,83.1
2022-09-15T08:07:13.085Z,83.5
2022-09-15T08:08:29.305Z,83.6
2022-09-15T08:09:45.556Z,83.4
2022-09-15T08:11:01.795Z,82.5
2022-09-15T08:12:18.026Z,81.7
2022-09-15T08:13:34.285Z,82.8
2022-09-15T08:14:50.506Z,83.2
2022-09-15T08:16:06.748Z,82.5
2022-09-15T08:17:22.988Z,83.9
2022-09-15T08:18:39.233Z,82.6
2022-09-15T08:19:55.476Z,82.6
2022-09-15T08:21:10.732Z,82
2022-09-15T08:22:26.966Z,83.6
2022-09-15T08:23:43.210Z,83.8
2022-09-15T08:24:59.459Z,82.7
2022-09-15T08:26:15.690Z,84.5
2022-09-15T08:27:31.927Z,84.5
2022-09-15T08:28:48.172Z,84.2
2022-09-15T08:30:04.409Z,85.7
2022-09-15T08:31:20.653Z,84.4
2022-09-15T08:32:36.882Z,84.3
2022-09-15T08:33:53.125Z,84
2022-09-15T08:35:09.370Z,83.7
2022-09-15T08:36:25.612Z,84.6
2022-09-15T08:37:40.870Z,84
2022-09-15T08:40:13.345Z,85.7
2022-09-15T08:41:29.579Z,84.9
2022-09-15T08:42:45.835Z,86.1
2022-09-15T08:45:18.303Z,86.5
2022-09-15T08:46:34.551Z,86.4
2022-09-15T08:47:50.789Z,87.1
2022-09-15T08:49:07.030Z,85.7
2022-09-15T08:50:23.258Z,86.8
2022-09-15T08:51:39.500Z,86.6
2022-09-15T08:52:55.753Z,87.2
2022-09-15T08:54:10.998Z,88
2022-09-15T08:55:27.239Z,86.6
2022-09-15T08:56:43.477Z,86.4
2022-09-15T08:57:59.727Z,86.8
2022-09-15T08:59:15.973Z,86.5
2022-09-15T09:00:32.202Z,86.1
2022-09-15T09:01:48.449Z,85.7
2022-09-15T09:03:04.689Z,86.4
2022-09-15T09:04:20.919Z,86
2022-09-15T09:05:37.157Z,86.2
2022-09-15T09:06:53.414Z,85.5
2022-09-15T09:08:09.652Z,86.8
2022-09-15T09:09:25.875Z,85.7
2022-09-15T09:10:41.139Z,85.7
2022-09-15T09:11:57.371Z,85.3
2022-09-15T09:13:13.614Z,83.7
2022-09-15T09:15:46.113Z,78.8
2022-09-15T09:17:02.341Z,79.6
2022-09-15T09:18:18.570Z,79.5
2022-09-15T09:19:34.825Z,78.6
2022-09-15T09:20:51.055Z,78
2022-09-15T09:22:07.291Z,78.8
2022-09-15T09:23:23.539Z,77.9
2022-09-15T09:24:39.782Z,76.9
2022-09-15T09:25:56.020Z,75.7
2022-09-15T09:27:11.275Z,76.3
2022-09-15T09:28:27.508Z,77.1
2022-09-15T09:29:43.766Z,77.9
2022-09-15T09:30:59.992Z,77.1
2022-09-15T09:32:16.233Z,77.8
2022-09-15T09:33:32.469Z,78.5
2022-09-15T09:34:48.732Z,79.4
2022-09-15T09:36:04.970Z,78.9
2022-09-15T09:37:21.198Z,77.8
2022-09-15T09:38:37.442Z,79.7
2022-09-15T09:39:53.670Z,80.3
2022-09-15T09:41:09.923Z,81.7
2022-09-15T09:42:26.168Z,81.2
2022-09-15T09:43:41.408Z,79.4
2022-09-15T09:44:57.650Z,79.8
2022-09-15T09:46:13.893Z,79.8
2022-09-15T09:47:30.142Z,79.9
2022-09-15T09:48:46.372Z,79
2022-09-15T09:50:02.617Z,79.2
2022-09-15T09:51:18.857Z,78.4
2022-09-15T09:52:35.089Z,78
2022-09-15T09:53:51.347Z,78.1
2022-09-15T09:55:07.585Z,78.8
2022-09-15T09:56:23.814Z,78.3
2022-09-15T09:57:40.067Z,77.3
2022-09-15T09:58:56.291Z,76.8
2022-09-15T10:00:11.547Z,77
2022-09-15T10:01:27.799Z,78.2
2022-09-15T10:02:44.028Z,77.5
2022-09-15T10:04:00.279Z,76.6
2022-09-15T10:05:16.513Z,76.7
2022-09-15T10:06:32.756Z,76.7
2022-09-15T10:07:48.987Z,75.9
2022-09-15T10:09:05.232Z,76.5
2022-09-15T10:10:21.477Z,76.9
2022-09-15T10:11:37.710Z,78
2022-09-15T10:12:53.961Z,76.5
2022-09-15T10:14:10.198Z,78.3
2022-09-15T10:15:26.441Z,77.6
2022-09-15T10:16:41.690Z,76.8
2022-09-15T10:17:57.936Z,77.7
2022-09-15T10:19:14.177Z,76.9
2022-09-15T10:20:30.408Z,76.6
2022-09-15T10:21:46.656Z,77.5
2022-09-15T10:23:02.885Z,77.3
2022-09-15T10:24:19.125Z,76.2
2022-09-15T10:25:35.379Z,76.4
2022-09-15T10:26:51.622Z,76
2022-09-15T10:28:07.860Z,76.3
2022-09-15T10:29:24.094Z,77.8
2022-09-15T10:30:40.330Z,77.8
2022-09-15T10:31:56.563Z,77.7
2022-09-15T10:34:28.065Z,76.1
2022-09-15T10:35:44.316Z,75.4
2022-09-15T10:37:00.540Z,74.7
2022-09-15T10:39:33.025Z,75.1
2022-09-15T10:40:48.286Z,75.2
2022-09-15T10:42:04.533Z,75.6
2022-09-15T10:43:20.762Z,73.7
2022-09-15T10:44:37.001Z,74.3
2022-09-15T10:45:53.258Z,75.9
2022-09-15T10:47:09.489Z,75.5
2022-09-15T10:48:25.751Z,75.7
2022-09-15T10:49:41.979Z,74.1
2022-09-15T10:50:58.202Z,75
2022-09-15T10:52:14.444Z,74.9
2022-09-15T10:53:30.690Z,76.3
2022-09-15T10:54:46.933Z,77
2022-09-15T10:56:03.169Z,77.3
2022-09-15T10:57:18.430Z,78
2022-09-15T10:58:34.671Z,76.8
2022-09-15T10:59:50.902Z,77.3
2022-09-15T11:01:07.158Z,78.7
2022-09-15T11:02:23.391Z,78.2
2022-09-15T11:03:39.621Z,79.5
2022-09-15T11:04:55.859Z,79.6
2022-09-15T11:06:12.103Z,80.3
2022-09-15T11:07:28.339Z,79.9
2022-09-15T11:08:44.585Z,80.1
2022-09-15T11:10:00.819Z,79.5
2022-09-15T11:12:33.311Z,80.7
2022-09-15T11:13:48.559Z,80.2
2022-09-15T11:15:04.795Z,81.6
2022-09-15T11:16:21.042Z,81.5
2022-09-15T11:17:37.287Z,81.7
2022-09-15T11:20:09.772Z,82.6
2022-09-15T11:21:26.017Z,82
2022-09-15T11:22:42.246Z,82.4
2022-09-15T11:23:58.477Z,83
2022-09-15T11:25:14.732Z,83.4
2022-09-15T11:26:30.955Z,83.5
2022-09-15T11:27:47.194Z,83.6
2022-09-15T11:29:03.442Z,81.5
2022-09-15T11:30:18.690Z,81.5
2022-09-15T11:31:34.947Z,80.8
2022-09-15T11:32:51.170Z,80.9
2022-09-15T11:34:07.421Z,81.6
2022-09-15T11:35:23.669Z,82.2
2022-09-15T11:36:39.906Z,81.9
2022-09-15T11:37:56.131Z,81.9
2022-09-15T11:39:12.369Z,82.6
2022-09-15T11:40:28.615Z,82.8
2022-09-15T11:41:44.863Z,83.4
2022-09-15T11:43:01.093Z,83.5
2022-09-15T11:44:17.333Z,83
2022-09-15T11:45:33.582Z,83.4
2022-09-15T11:46:48.844Z,82.9
2022-09-15T11:48:05.075Z,83.5
2022-09-15T11:49:21.321Z,82.6
2022-09-15T11:50:37.560Z,83
2022-09-15T11:51:53.794Z,82.5
2022-09-15T11:53:10.046Z,82.7
2022-09-15T11:54:26.273Z,82.2
2022-09-15T11:55:42.519Z,82
2022-09-15T11:58:14.988Z,81.5
2022-09-15T11:59:31.238Z,82
2022-09-15T12:00:47.482Z,82.3
2022-09-15T12:02:03.722Z,81.8
2022-09-15T12:03:18.973Z,81.1
2022-09-15T12:04:35.211Z,80.9
2022-09-15T12:05:51.443Z,81.1
2022-09-15T12:07:07.700Z,81.3
2022-09-15T12:08:23.932Z,81.3
2022-09-15T12:09:40.167Z,81.5
2022-09-15T12:10:56.413Z,81.2
2022-09-15T12:12:12.646Z,80
2022-09-15T12:13:28.887Z,79.8
2022-09-15T12:14:45.131Z,79.5
2022-09-15T12:16:01.367Z,79.3
2022-09-15T12:17:17.619Z,79.5
2022-09-15T12:18:33.859Z,78.5
2022-09-15T12:19:49.115Z,79
2022-09-15T12:21:05.354Z,78.2
2022-09-15T12:24:54.075Z,76.6
2022-09-15T12:26:10.314Z,75.8
2022-09-15T12:28:42.792Z,75
2022-09-15T12:29:58.048Z,74.5
2022-09-15T12:31:13.310Z,74.8
2022-09-15T12:32:28.562Z,75.6
2022-09-15T12:33:43.830Z,75.2
2022-09-15T12:34:59.086Z,75.7
2022-09-15T12:36:14.348Z,75.7
2022-09-15T12:37:29.592Z,75.8
2022-09-15T12:38:44.863Z,75.6
2022-09-15T12:40:01.092Z,75.5
2022-09-15T12:41:17.340Z,75.1
2022-09-15T12:42:33.574Z,74.5
2022-09-15T12:43:49.821Z,73.8
2022-09-15T12:45:06.067Z,71
2022-09-15T12:46:22.307Z,72.8
2022-09-15T12:47:38.537Z,72.2
2022-09-15T12:48:54.783Z,71.2
2022-09-15T12:50:11.027Z,71.1
2022-09-15T12:51:26.270Z,69.9
2022-09-15T12:52:41.525Z,70
2022-09-15T12:53:57.766Z,70.5
2022-09-15T12:55:14.019Z,70
2022-09-15T12:56:30.260Z,70.5
2022-09-15T12:57:46.496Z,70
2022-09-15T12:59:02.744Z,70.4
2022-09-15T13:00:18.977Z,70.9
2022-09-15T13:01:35.213Z,70.8
2022-09-15T13:02:51.464Z,70.9
2022-09-15T13:04:07.703Z,70.9
2022-09-15T13:05:23.933Z,70.9
2022-09-15T13:06:40.173Z,70.2
2022-09-15T13:07:56.411Z,71.7
2022-09-15T13:09:11.672Z,70.6
2022-09-15T13:10:27.907Z,69.8
2022-09-15T13:11:44.158Z,69.7
2022-09-15T13:13:00.389Z,70.9
2022-09-15T13:14:16.620Z,71.6
2022-09-15T13:15:32.864Z,69.8
2022-09-15T13:16:49.099Z,69.5
2022-09-15T13:18:04.377Z,70.1
2022-09-15T13:19:19.629Z,69.3
2022-09-15T13:20:35.872Z,69.3
2022-09-15T13:21:52.102Z,69.9
2022-09-15T13:23:08.356Z,70.3
2022-09-15T13:24:24.579Z,70.9
2022-09-15T13:25:40.823Z,70.1
2022-09-15T13:26:57.072Z,71
2022-09-15T13:28:13.317Z,69.9
2022-09-15T13:29:29.541Z,69.2
2022-09-15T13:30:45.782Z,70
2022-09-15T13:32:02.032Z,69.6
2022-09-15T13:33:18.262Z,69.3
2022-09-15T13:34:34.508Z,70.6
2022-09-15T13:35:49.764Z,70.4
2022-09-15T13:37:06.003Z,70.4
2022-09-15T13:38:22.252Z,70.5
2022-09-15T13:39:38.000Z,70.6
2022-09-15T13:40:54.716Z,71.4
2022-09-15T13:42:10.958Z,71.6
2022-09-15T13:43:27.198Z,71.5
2022-09-15T13:44:42.467Z,72.1
2022-09-15T13:45:57.724Z,72.9
2022-09-15T13:47:12.987Z,72.1
2022-09-15T13:48:28.244Z,72.7
2022-09-15T13:49:44.478Z,72.7
2022-09-15T13:51:00.714Z,73.3
2022-09-15T13:52:16.947Z,73.4
2022-09-15T13:53:33.201Z,73.1
2022-09-15T13:54:49.432Z,74
2022-09-15T13:56:05.682Z,74.2
2022-09-15T13:57:21.923Z,72.3
2022-09-15T13:58:38.153Z,73.3
2022-09-15T13:59:54.395Z,74.2
2022-09-15T14:01:10.649Z,74.1
2022-09-15T14:02:26.887Z,74.2
2022-09-15T14:03:43.113Z,74.3
2022-09-15T14:04:58.381Z,73.1
2022-09-15T14:06:14.622Z,73.4
2022-09-15T14:07:30.853Z,72.5
2022-09-15T14:08:47.098Z,73.4
2022-09-15T14:10:03.345Z,73.3
2022-09-15T14:11:19.576Z,73.9
2022-09-15T14:12:35.821Z,74.3
2022-09-15T14:13:51.087Z,74.8
2022-09-15T14:15:06.326Z,74.9
2022-09-15T14:16:22.568Z,75.2
2022-09-15T14:17:38.816Z,76
2022-09-15T14:18:55.054Z,75.8
2022-09-15T14:20:11.287Z,76.2
2022-09-15T14:21:27.541Z,76.2
2022-09-15T14:22:43.781Z,76.7
2022-09-15T14:24:00.008Z,76.5
2022-09-15T14:25:16.255Z,76.9
2022-09-15T14:26:32.497Z,77.3
2022-09-15T14:27:48.731Z,76.7
2022-09-15T14:29:04.974Z,76.7
2022-09-15T14:30:21.219Z,76.5
2022-09-15T14:31:36.458Z,76.2
2022-09-15T14:32:52.705Z,76.9
2022-09-15T14:34:08.940Z,76.8
2022-09-15T14:35:25.181Z,76.7
2022-09-15T14:36:41.424Z,75.1
2022-09-15T14:37:57.662Z,74.9
2022-09-15T14:39:13.915Z,74
2022-09-15T14:40:29.173Z,74.1
2022-09-15T14:41:44.432Z,74
2022-09-15T14:42:59.689Z,74.6
2022-09-15T14:44:14.937Z,73.8
2022-09-15T14:45:30.207Z,72.4
2022-09-15T14:46:45.455Z,73
2022-09-15T14:48:00.732Z,72
2022-09-15T14:49:15.978Z,72.2
2022-09-15T14:50:32.227Z,72
2022-09-15T14:51:48.462Z,72.7
2022-09-15T14:53:04.691Z,71.1
2022-09-15T14:54:20.930Z,69.8
2022-09-15T14:55:36.201Z,70.2
2022-09-15T14:56:52.438Z,70.1
2022-09-15T14:58:08.674Z,70.8
2022-09-15T14:59:24.915Z,69.9
2022-09-15T15:00:41.160Z,70.1
2022-09-15T15:01:57.390Z,70
2022-09-15T15:03:13.636Z,69.4
2022-09-15T15:04:29.885Z,70.8
2022-09-15T15:05:46.120Z,68.9
2022-09-15T15:07:02.352Z,70.9
2022-09-15T15:08:18.599Z,70
2022-09-15T15:09:34.843Z,69.8
2022-09-15T15:10:51.078Z,70.8
2022-09-15T15:12:06.338Z,70.3
2022-09-15T15:13:22.565Z,70.5
2022-09-15T15:14:37.845Z,70.4
2022-09-15T15:15:53.084Z,70.9
2022-09-15T15:17:08.356Z,70.5
2022-09-15T15:18:23.606Z,71
2022-09-15T15:19:38.864Z,71.6
2022-09-15T15:20:54.137Z,71.7
2022-09-15T15:22:10.374Z,71.8
2022-09-15T15:23:26.601Z,71.2
2022-09-15T15:24:42.846Z,72
2022-09-15T15:25:59.079Z,72
2022-09-15T15:27:15.336Z,71
2022-09-15T15:28:31.571Z,71.9
2022-09-15T15:29:47.801Z,70.9
2022-09-15T15:31:04.064Z,71.9
2022-09-15T15:32:20.278Z,72.2
2022-09-15T15:33:36.518Z,71.7
2022-09-15T15:34:52.776Z,71.7
2022-09-15T15:36:09.010Z,70.8
2022-09-15T15:37:24.254Z,70.2
2022-09-15T15:38:40.504Z,70.5
2022-09-15T15:39:56.750Z,67.7
2022-09-15T15:41:12.974Z,69.6
2022-09-15T15:42:29.222Z,69.1
2022-09-15T15:43:45.485Z,68.5
2022-09-15T15:45:01.699Z,67.6
2022-09-15T15:46:16.964Z,67
2022-09-15T15:47:32.210Z,68.1
2022-09-15T15:48:48.473Z,67.1
2022-09-15T15:50:03.727Z,66.8
2022-09-15T15:51:18.987Z,65.8
2022-09-15T15:53:51.471Z,65.5
2022-09-15T15:56:23.934Z,65.9
2022-09-15T15:58:56.416Z,64.4
2022-09-15T16:00:12.676Z,64.4
2022-09-15T16:01:28.909Z,63.8
2022-09-15T16:04:01.382Z,64.5
2022-09-15T16:05:17.612Z,64.7
2022-09-15T16:06:33.869Z,65.9
2022-09-15T16:09:05.379Z,64.5
2022-09-15T16:10:20.617Z,64.3
2022-09-15T16:11:35.869Z,65.3
2022-09-15T16:12:52.118Z,65.8
2022-09-15T16:14:08.357Z,66.8
2022-09-15T16:15:24.600Z,67.2
2022-09-15T16:16:40.842Z,66.5
2022-09-15T16:17:57.074Z,66.2
2022-09-15T16:19:13.311Z,67.2
2022-09-15T16:20:29.549Z,67.5
2022-09-15T16:21:45.801Z,68.1
2022-09-15T16:23:02.031Z,68
2022-09-15T16:24:17.285Z,67.1
2022-09-15T16:25:32.559Z,68.5
2022-09-15T16:26:48.783Z,69.6
2022-09-15T16:28:05.030Z,68.5
2022-09-15T16:29:21.278Z,69
2022-09-15T16:30:37.522Z,69
2022-09-15T16:31:53.742Z,69.7
2022-09-15T16:33:09.985Z,69.1
2022-09-15T16:34:26.229Z,70.2
2022-09-15T16:35:42.477Z,69.7
2022-09-15T16:36:58.712Z,69.6
2022-09-15T16:38:13.966Z,69.2
2022-09-15T16:39:29.223Z,69.5
2022-09-15T16:40:45.470Z,69.5
2022-09-15T16:42:01.703Z,69.7
2022-09-15T16:43:17.947Z,69.6
2022-09-15T16:44:34.190Z,69.3
2022-09-15T16:45:50.434Z,69.2
2022-09-15T16:47:06.661Z,69.5
2022-09-15T16:48:22.918Z,69.6
2022-09-15T16:49:39.141Z,69.7
2022-09-15T16:50:55.379Z,69.8
2022-09-15T16:52:11.637Z,69.6
2022-09-15T16:53:27.861Z,69.6
2022-09-15T16:54:44.126Z,70
2022-09-15T16:55:59.360Z,69.8
2022-09-15T16:57:15.607Z,70.2
2022-09-15T16:58:31.850Z,70.5
2022-09-15T16:59:48.106Z,69.8
2022-09-15T17:01:04.329Z,69.8
2022-09-15T17:02:20.565Z,70
2022-09-15T17:03:36.806Z,69.5
2022-09-15T17:04:52.075Z,69.9
2022-09-15T17:06:07.318Z,70.5
2022-09-15T17:07:23.567Z,69.7
2022-09-15T17:08:39.800Z,69.3
2022-09-15T17:09:56.040Z,69.7
2022-09-15T17:11:12.282Z,69.8
2022-09-15T17:12:28.518Z,69.9
2022-09-15T17:13:44.772Z,69.7
2022-09-15T17:15:01.010Z,69.9
2022-09-15T17:16:17.235Z,69.7
2022-09-15T17:17:33.491Z,70
2022-09-15T17:18:49.714Z,70
2022-09-15T17:20:05.968Z,70.6
2022-09-15T17:21:22.201Z,70.2
2022-09-15T17:22:37.462Z,70.6
2022-09-15T17:23:53.699Z,70.1
2022-09-15T17:25:09.946Z,69.8
2022-09-15T17:26:26.188Z,70
2022-09-15T17:27:42.420Z,70.3
2022-09-15T17:28:58.664Z,70.5
2022-09-15T17:30:14.904Z,71
2022-09-15T17:31:30.172Z,70.5
2022-09-15T17:32:45.417Z,70.5